sensor_id;sensor_type;location;lat;lon;timestamp;P1;durP1;ratioP1;P2;durP2;ratioP2
58621;SDS011;44389;51.578;5.456;2023-05-10T00:00:38;67.15;;;34.80;;
58621;SDS011;44389;51.578;5.456;2023-05-10T00:03:03;59.53;;;31.70;;
58621;SDS011;44389;51.578;5.456;2023-05-10T00:05:32;59.92;;;33.08;;
58621;SDS011;44389;51.578;5.456;2023-05-10T00:07:57;66.32;;;35.03;;
58621;SDS011;44389;51.578;5.456;2023-05-10T00:10:23;60.28;;;35.13;;
58621;SDS011;44389;51.578;5.456;2023-05-10T00:12:48;64.10;;;34.60;;
58621;SDS011;44389;51.578;5.456;2023-05-10T00:15:13;67.80;;;36.55;;
58621;SDS011;44389;51.578;5.456;2023-05-10T00:17:38;77.40;;;36.85;;
58621;SDS011;44389;51.578;5.456;2023-05-10T00:20:04;70.80;;;38.38;;
58621;SDS011;44389;51.578;5.456;2023-05-10T00:22:30;76.55;;;40.22;;
58621;SDS011;44389;51.578;5.456;2023-05-10T00:24:56;69.40;;;39.65;;
58621;SDS011;44389;51.578;5.456;2023-05-10T00:27:22;72.28;;;39.28;;
58621;SDS011;44389;51.578;5.456;2023-05-10T00:29:47;77.28;;;40.00;;
58621;SDS011;44389;51.578;5.456;2023-05-10T00:32:12;75.43;;;41.47;;
58621;SDS011;44389;51.578;5.456;2023-05-10T00:34:38;83.75;;;43.83;;
58621;SDS011;44389;51.578;5.456;2023-05-10T00:37:04;87.80;;;43.45;;
58621;SDS011;44389;51.578;5.456;2023-05-10T00:39:29;85.78;;;44.67;;
58621;SDS011;44389;51.578;5.456;2023-05-10T00:41:55;92.47;;;43.97;;
58621;SDS011;44389;51.578;5.456;2023-05-10T00:44:20;91.82;;;45.33;;
58621;SDS011;44389;51.578;5.456;2023-05-10T00:46:46;87.00;;;45.22;;
58621;SDS011;44389;51.578;5.456;2023-05-10T00:49:12;101.53;;;47.28;;
58621;SDS011;44389;51.578;5.456;2023-05-10T00:51:37;100.22;;;45.88;;
58621;SDS011;44389;51.578;5.456;2023-05-10T00:54:03;94.38;;;45.67;;
58621;SDS011;44389;51.578;5.456;2023-05-10T00:56:28;100.00;;;47.17;;
58621;SDS011;44389;51.578;5.456;2023-05-10T00:58:54;113.95;;;47.13;;
58621;SDS011;44389;51.578;5.456;2023-05-10T01:01:20;93.60;;;46.03;;
58621;SDS011;44389;51.578;5.456;2023-05-10T01:03:46;104.15;;;48.53;;
58621;SDS011;44389;51.578;5.456;2023-05-10T01:06:12;107.63;;;49.63;;
58621;SDS011;44389;51.578;5.456;2023-05-10T01:08:37;113.53;;;52.80;;
58621;SDS011;44389;51.578;5.456;2023-05-10T01:11:03;122.32;;;54.15;;
58621;SDS011;44389;51.578;5.456;2023-05-10T01:13:39;131.63;;;56.35;;
58621;SDS011;44389;51.578;5.456;2023-05-10T01:16:06;114.65;;;54.75;;
58621;SDS011;44389;51.578;5.456;2023-05-10T01:18:36;126.40;;;55.05;;
58621;SDS011;44389;51.578;5.456;2023-05-10T01:23:58;125.32;;;57.10;;
58621;SDS011;44389;51.578;5.456;2023-05-10T01:34:16;138.38;;;59.72;;
58621;SDS011;44389;51.578;5.456;2023-05-10T01:36:55;138.00;;;60.80;;
58621;SDS011;44389;51.578;5.456;2023-05-10T01:39:29;146.77;;;61.78;;
58621;SDS011;44389;51.578;5.456;2023-05-10T01:44:39;190.75;;;68.13;;
58621;SDS011;44389;51.578;5.456;2023-05-10T01:50:10;199.55;;;70.75;;
58621;SDS011;44389;51.578;5.456;2023-05-10T01:52:44;234.65;;;80.38;;
58621;SDS011;44389;51.578;5.456;2023-05-10T01:55:15;223.07;;;79.13;;
58621;SDS011;44389;51.578;5.456;2023-05-10T01:57:42;260.83;;;82.72;;
58621;SDS011;44389;51.578;5.456;2023-05-10T02:00:09;243.63;;;85.97;;
58621;SDS011;44389;51.578;5.456;2023-05-10T02:02:37;251.00;;;86.70;;
58621;SDS011;44389;51.578;5.456;2023-05-10T02:05:09;228.05;;;82.38;;
58621;SDS011;44389;51.578;5.456;2023-05-10T02:07:37;251.23;;;84.07;;
58621;SDS011;44389;51.578;5.456;2023-05-10T02:10:04;237.55;;;84.82;;
58621;SDS011;44389;51.578;5.456;2023-05-10T02:12:31;250.55;;;84.93;;
58621;SDS011;44389;51.578;5.456;2023-05-10T02:15:00;217.40;;;83.45;;
58621;SDS011;44389;51.578;5.456;2023-05-10T02:17:27;220.77;;;86.18;;
58621;SDS011;44389;51.578;5.456;2023-05-10T02:19:54;237.27;;;88.05;;
58621;SDS011;44389;51.578;5.456;2023-05-10T02:22:21;225.23;;;89.63;;
58621;SDS011;44389;51.578;5.456;2023-05-10T02:24:48;217.38;;;87.32;;
58621;SDS011;44389;51.578;5.456;2023-05-10T02:27:15;205.57;;;83.50;;
58621;SDS011;44389;51.578;5.456;2023-05-10T02:29:42;221.30;;;85.30;;
58621;SDS011;44389;51.578;5.456;2023-05-10T02:32:09;212.25;;;86.30;;
58621;SDS011;44389;51.578;5.456;2023-05-10T02:34:36;201.35;;;86.82;;
58621;SDS011;44389;51.578;5.456;2023-05-10T02:37:01;193.02;;;84.10;;
58621;SDS011;44389;51.578;5.456;2023-05-10T02:39:27;193.15;;;86.60;;
58621;SDS011;44389;51.578;5.456;2023-05-10T02:41:55;194.00;;;87.70;;
58621;SDS011;44389;51.578;5.456;2023-05-10T02:44:22;181.40;;;85.40;;
58621;SDS011;44389;51.578;5.456;2023-05-10T02:46:48;177.55;;;85.35;;
58621;SDS011;44389;51.578;5.456;2023-05-10T02:49:14;173.27;;;84.57;;
58621;SDS011;44389;51.578;5.456;2023-05-10T02:51:44;187.75;;;87.53;;
58621;SDS011;44389;51.578;5.456;2023-05-10T02:54:15;196.25;;;86.90;;
58621;SDS011;44389;51.578;5.456;2023-05-10T02:56:51;191.43;;;86.72;;
58621;SDS011;44389;51.578;5.456;2023-05-10T02:59:21;195.80;;;89.93;;
58621;SDS011;44389;51.578;5.456;2023-05-10T03:01:46;193.20;;;87.35;;
58621;SDS011;44389;51.578;5.456;2023-05-10T03:04:12;209.25;;;90.30;;
58621;SDS011;44389;51.578;5.456;2023-05-10T03:06:38;202.70;;;90.07;;
58621;SDS011;44389;51.578;5.456;2023-05-10T03:09:03;197.43;;;89.05;;
58621;SDS011;44389;51.578;5.456;2023-05-10T03:17:06;212.98;;;93.55;;
58621;SDS011;44389;51.578;5.456;2023-05-10T03:19:56;200.05;;;91.82;;
58621;SDS011;44389;51.578;5.456;2023-05-10T03:22:30;215.07;;;96.30;;
58621;SDS011;44389;51.578;5.456;2023-05-10T03:24:57;227.15;;;94.18;;
58621;SDS011;44389;51.578;5.456;2023-05-10T03:27:25;216.40;;;99.72;;
58621;SDS011;44389;51.578;5.456;2023-05-10T03:29:52;222.80;;;96.80;;
58621;SDS011;44389;51.578;5.456;2023-05-10T03:32:19;217.75;;;97.07;;
58621;SDS011;44389;51.578;5.456;2023-05-10T03:34:45;227.63;;;99.07;;
58621;SDS011;44389;51.578;5.456;2023-05-10T03:37:10;236.95;;;99.85;;
58621;SDS011;44389;51.578;5.456;2023-05-10T03:39:35;221.20;;;99.88;;
58621;SDS011;44389;51.578;5.456;2023-05-10T03:42:01;229.13;;;97.50;;
58621;SDS011;44389;51.578;5.456;2023-05-10T03:44:26;246.18;;;98.45;;
58621;SDS011;44389;51.578;5.456;2023-05-10T03:46:51;227.35;;;99.10;;
58621;SDS011;44389;51.578;5.456;2023-05-10T03:49:17;229.10;;;99.68;;
58621;SDS011;44389;51.578;5.456;2023-05-10T03:51:42;231.27;;;97.72;;
58621;SDS011;44389;51.578;5.456;2023-05-10T03:54:07;210.50;;;93.22;;
58621;SDS011;44389;51.578;5.456;2023-05-10T03:56:33;205.65;;;94.82;;
58621;SDS011;44389;51.578;5.456;2023-05-10T03:58:58;213.23;;;94.47;;
58621;SDS011;44389;51.578;5.456;2023-05-10T04:01:23;199.18;;;88.35;;
58621;SDS011;44389;51.578;5.456;2023-05-10T04:03:48;202.65;;;91.18;;
58621;SDS011;44389;51.578;5.456;2023-05-10T04:06:14;186.88;;;88.47;;
58621;SDS011;44389;51.578;5.456;2023-05-10T04:08:39;188.07;;;88.95;;
58621;SDS011;44389;51.578;5.456;2023-05-10T04:11:05;182.30;;;88.22;;
58621;SDS011;44389;51.578;5.456;2023-05-10T04:15:57;168.48;;;80.95;;
58621;SDS011;44389;51.578;5.456;2023-05-10T04:18:23;155.20;;;78.75;;
58621;SDS011;44389;51.578;5.456;2023-05-10T04:20:48;156.00;;;77.50;;
58621;SDS011;44389;51.578;5.456;2023-05-10T04:23:13;159.63;;;73.68;;
58621;SDS011;44389;51.578;5.456;2023-05-10T04:25:39;157.23;;;75.28;;
58621;SDS011;44389;51.578;5.456;2023-05-10T04:28:04;151.50;;;70.95;;
58621;SDS011;44389;51.578;5.456;2023-05-10T04:30:30;135.50;;;65.28;;
58621;SDS011;44389;51.578;5.456;2023-05-10T04:32:55;125.10;;;60.92;;
58621;SDS011;44389;51.578;5.456;2023-05-10T04:35:20;112.10;;;57.40;;
58621;SDS011;44389;51.578;5.456;2023-05-10T04:37:46;112.30;;;57.70;;
58621;SDS011;44389;51.578;5.456;2023-05-10T04:40:11;92.03;;;53.67;;
58621;SDS011;44389;51.578;5.456;2023-05-10T04:42:39;103.72;;;53.08;;
58621;SDS011;44389;51.578;5.456;2023-05-10T04:45:06;93.72;;;52.72;;
58621;SDS011;44389;51.578;5.456;2023-05-10T04:47:32;94.57;;;50.72;;
58621;SDS011;44389;51.578;5.456;2023-05-10T04:49:57;93.32;;;52.58;;
58621;SDS011;44389;51.578;5.456;2023-05-10T04:52:23;89.82;;;49.97;;
58621;SDS011;44389;51.578;5.456;2023-05-10T04:54:48;83.38;;;49.55;;
58621;SDS011;44389;51.578;5.456;2023-05-10T04:57:14;87.80;;;50.53;;
58621;SDS011;44389;51.578;5.456;2023-05-10T04:59:39;98.32;;;51.22;;
58621;SDS011;44389;51.578;5.456;2023-05-10T05:02:04;89.32;;;49.67;;
58621;SDS011;44389;51.578;5.456;2023-05-10T05:04:30;94.63;;;51.95;;
58621;SDS011;44389;51.578;5.456;2023-05-10T05:06:56;97.00;;;52.67;;
58621;SDS011;44389;51.578;5.456;2023-05-10T05:09:21;94.05;;;53.50;;
58621;SDS011;44389;51.578;5.456;2023-05-10T05:11:46;96.25;;;53.45;;
58621;SDS011;44389;51.578;5.456;2023-05-10T05:14:11;97.65;;;52.88;;
58621;SDS011;44389;51.578;5.456;2023-05-10T05:16:37;98.55;;;53.47;;
58621;SDS011;44389;51.578;5.456;2023-05-10T05:19:02;89.70;;;51.95;;
58621;SDS011;44389;51.578;5.456;2023-05-10T05:21:27;93.63;;;52.25;;
58621;SDS011;44389;51.578;5.456;2023-05-10T05:23:53;90.55;;;51.95;;
58621;SDS011;44389;51.578;5.456;2023-05-10T05:26:19;88.20;;;50.97;;
58621;SDS011;44389;51.578;5.456;2023-05-10T05:28:44;79.07;;;49.30;;
58621;SDS011;44389;51.578;5.456;2023-05-10T05:31:09;77.05;;;46.78;;
58621;SDS011;44389;51.578;5.456;2023-05-10T05:33:35;78.57;;;46.70;;
58621;SDS011;44389;51.578;5.456;2023-05-10T05:36:00;76.43;;;46.78;;
58621;SDS011;44389;51.578;5.456;2023-05-10T05:38:27;80.95;;;50.35;;
58621;SDS011;44389;51.578;5.456;2023-05-10T05:40:52;74.68;;;48.42;;
58621;SDS011;44389;51.578;5.456;2023-05-10T05:43:17;78.75;;;47.10;;
58621;SDS011;44389;51.578;5.456;2023-05-10T05:45:43;72.15;;;45.42;;
58621;SDS011;44389;51.578;5.456;2023-05-10T05:48:08;72.88;;;45.67;;
58621;SDS011;44389;51.578;5.456;2023-05-10T05:50:33;71.68;;;44.65;;
58621;SDS011;44389;51.578;5.456;2023-05-10T05:52:59;67.63;;;45.92;;
58621;SDS011;44389;51.578;5.456;2023-05-10T05:55:24;66.20;;;43.72;;
58621;SDS011;44389;51.578;5.456;2023-05-10T05:57:51;74.53;;;45.35;;
58621;SDS011;44389;51.578;5.456;2023-05-10T06:00:16;70.25;;;45.30;;
58621;SDS011;44389;51.578;5.456;2023-05-10T06:02:42;66.55;;;43.33;;
58621;SDS011;44389;51.578;5.456;2023-05-10T06:05:07;60.08;;;39.85;;
58621;SDS011;44389;51.578;5.456;2023-05-10T06:07:33;63.78;;;41.72;;
58621;SDS011;44389;51.578;5.456;2023-05-10T06:09:58;60.35;;;42.38;;
58621;SDS011;44389;51.578;5.456;2023-05-10T06:12:24;68.40;;;42.75;;
58621;SDS011;44389;51.578;5.456;2023-05-10T06:14:49;64.28;;;41.65;;
58621;SDS011;44389;51.578;5.456;2023-05-10T06:17:14;62.30;;;40.05;;
58621;SDS011;44389;51.578;5.456;2023-05-10T06:19:40;64.43;;;40.53;;
58621;SDS011;44389;51.578;5.456;2023-05-10T06:22:05;57.83;;;39.40;;
58621;SDS011;44389;51.578;5.456;2023-05-10T06:24:30;59.75;;;39.97;;
58621;SDS011;44389;51.578;5.456;2023-05-10T06:26:55;61.60;;;40.63;;
58621;SDS011;44389;51.578;5.456;2023-05-10T06:29:21;60.55;;;39.25;;
58621;SDS011;44389;51.578;5.456;2023-05-10T06:31:46;58.67;;;40.53;;
58621;SDS011;44389;51.578;5.456;2023-05-10T06:34:12;57.63;;;40.10;;
58621;SDS011;44389;51.578;5.456;2023-05-10T06:36:38;67.88;;;41.00;;
58621;SDS011;44389;51.578;5.456;2023-05-10T06:39:03;59.25;;;40.47;;
58621;SDS011;44389;51.578;5.456;2023-05-10T06:41:28;59.40;;;40.90;;
58621;SDS011;44389;51.578;5.456;2023-05-10T06:43:54;57.53;;;40.25;;
58621;SDS011;44389;51.578;5.456;2023-05-10T06:46:19;57.35;;;39.38;;
58621;SDS011;44389;51.578;5.456;2023-05-10T06:48:45;55.45;;;39.15;;
58621;SDS011;44389;51.578;5.456;2023-05-10T06:51:10;53.75;;;39.60;;
58621;SDS011;44389;51.578;5.456;2023-05-10T06:53:35;59.47;;;40.55;;
58621;SDS011;44389;51.578;5.456;2023-05-10T06:56:01;55.58;;;39.97;;
58621;SDS011;44389;51.578;5.456;2023-05-10T06:58:28;57.47;;;41.03;;
58621;SDS011;44389;51.578;5.456;2023-05-10T07:00:53;58.83;;;38.72;;
58621;SDS011;44389;51.578;5.456;2023-05-10T07:03:18;57.40;;;40.08;;
58621;SDS011;44389;51.578;5.456;2023-05-10T07:05:43;58.67;;;39.80;;
58621;SDS011;44389;51.578;5.456;2023-05-10T07:08:09;56.47;;;38.42;;
58621;SDS011;44389;51.578;5.456;2023-05-10T07:10:34;58.42;;;39.28;;
58621;SDS011;44389;51.578;5.456;2023-05-10T07:12:59;59.00;;;39.45;;
58621;SDS011;44389;51.578;5.456;2023-05-10T07:15:26;59.70;;;39.60;;
58621;SDS011;44389;51.578;5.456;2023-05-10T07:17:51;57.38;;;40.42;;
58621;SDS011;44389;51.578;5.456;2023-05-10T07:20:17;62.78;;;41.10;;
58621;SDS011;44389;51.578;5.456;2023-05-10T07:22:42;57.92;;;41.20;;
58621;SDS011;44389;51.578;5.456;2023-05-10T07:25:07;59.30;;;41.03;;
58621;SDS011;44389;51.578;5.456;2023-05-10T07:27:33;62.80;;;40.92;;
58621;SDS011;44389;51.578;5.456;2023-05-10T07:29:58;65.00;;;43.35;;
58621;SDS011;44389;51.578;5.456;2023-05-10T07:32:23;67.45;;;42.92;;
58621;SDS011;44389;51.578;5.456;2023-05-10T07:34:49;64.60;;;43.05;;
58621;SDS011;44389;51.578;5.456;2023-05-10T07:37:14;62.88;;;42.85;;
58621;SDS011;44389;51.578;5.456;2023-05-10T07:39:39;64.15;;;41.72;;
58621;SDS011;44389;51.578;5.456;2023-05-10T07:42:04;61.33;;;41.65;;
58621;SDS011;44389;51.578;5.456;2023-05-10T07:44:30;64.25;;;42.35;;
58621;SDS011;44389;51.578;5.456;2023-05-10T07:46:55;61.30;;;41.47;;
58621;SDS011;44389;51.578;5.456;2023-05-10T07:49:21;59.33;;;39.47;;
58621;SDS011;44389;51.578;5.456;2023-05-10T07:51:49;52.65;;;38.97;;
58621;SDS011;44389;51.578;5.456;2023-05-10T07:54:14;48.50;;;34.33;;
58621;SDS011;44389;51.578;5.456;2023-05-10T07:56:39;49.40;;;35.35;;
58621;SDS011;44389;51.578;5.456;2023-05-10T07:59:09;50.10;;;34.80;;
58621;SDS011;44389;51.578;5.456;2023-05-10T08:01:35;49.08;;;34.70;;
58621;SDS011;44389;51.578;5.456;2023-05-10T08:04:00;48.97;;;34.35;;
58621;SDS011;44389;51.578;5.456;2023-05-10T08:06:26;44.53;;;32.47;;
58621;SDS011;44389;51.578;5.456;2023-05-10T08:08:53;41.90;;;29.80;;
58621;SDS011;44389;51.578;5.456;2023-05-10T08:11:19;38.35;;;27.88;;
58621;SDS011;44389;51.578;5.456;2023-05-10T08:13:45;38.92;;;29.10;;
58621;SDS011;44389;51.578;5.456;2023-05-10T08:16:11;36.95;;;26.50;;
58621;SDS011;44389;51.578;5.456;2023-05-10T08:18:36;34.97;;;25.15;;
58621;SDS011;44389;51.578;5.456;2023-05-10T08:21:02;35.25;;;25.88;;
58621;SDS011;44389;51.578;5.456;2023-05-10T08:23:28;30.77;;;24.63;;
58621;SDS011;44389;51.578;5.456;2023-05-10T08:25:53;29.95;;;22.92;;
58621;SDS011;44389;51.578;5.456;2023-05-10T08:28:18;30.77;;;22.90;;
58621;SDS011;44389;51.578;5.456;2023-05-10T08:30:43;27.38;;;20.77;;
58621;SDS011;44389;51.578;5.456;2023-05-10T08:33:09;31.95;;;20.63;;
58621;SDS011;44389;51.578;5.456;2023-05-10T08:35:34;28.40;;;21.35;;
58621;SDS011;44389;51.578;5.456;2023-05-10T08:38:00;23.00;;;18.27;;
58621;SDS011;44389;51.578;5.456;2023-05-10T08:40:25;23.25;;;19.27;;
58621;SDS011;44389;51.578;5.456;2023-05-10T08:42:55;23.42;;;18.85;;
58621;SDS011;44389;51.578;5.456;2023-05-10T08:45:28;23.30;;;19.50;;
58621;SDS011;44389;51.578;5.456;2023-05-10T08:47:58;25.50;;;19.35;;
58621;SDS011;44389;51.578;5.456;2023-05-10T08:50:26;25.10;;;18.73;;
58621;SDS011;44389;51.578;5.456;2023-05-10T08:52:51;23.75;;;18.75;;
58621;SDS011;44389;51.578;5.456;2023-05-10T08:55:18;22.98;;;18.38;;
58621;SDS011;44389;51.578;5.456;2023-05-10T08:57:43;20.10;;;17.75;;
58621;SDS011;44389;51.578;5.456;2023-05-10T09:00:09;21.55;;;16.63;;
58621;SDS011;44389;51.578;5.456;2023-05-10T09:02:35;21.85;;;16.85;;
58621;SDS011;44389;51.578;5.456;2023-05-10T09:05:02;17.52;;;14.43;;
58621;SDS011;44389;51.578;5.456;2023-05-10T09:07:29;18.83;;;15.25;;
58621;SDS011;44389;51.578;5.456;2023-05-10T09:09:54;18.77;;;15.05;;
58621;SDS011;44389;51.578;5.456;2023-05-10T09:12:20;19.20;;;15.25;;
58621;SDS011;44389;51.578;5.456;2023-05-10T09:14:46;19.65;;;14.90;;
58621;SDS011;44389;51.578;5.456;2023-05-10T09:17:11;19.48;;;14.07;;
58621;SDS011;44389;51.578;5.456;2023-05-10T09:19:37;17.33;;;12.88;;
58621;SDS011;44389;51.578;5.456;2023-05-10T09:22:03;16.10;;;13.60;;
58621;SDS011;44389;51.578;5.456;2023-05-10T09:24:29;16.20;;;12.75;;
58621;SDS011;44389;51.578;5.456;2023-05-10T09:26:55;14.97;;;10.80;;
58621;SDS011;44389;51.578;5.456;2023-05-10T09:29:22;17.33;;;12.10;;
58621;SDS011;44389;51.578;5.456;2023-05-10T09:31:48;14.95;;;11.43;;
58621;SDS011;44389;51.578;5.456;2023-05-10T09:34:30;13.70;;;10.25;;
58621;SDS011;44389;51.578;5.456;2023-05-10T09:36:57;12.00;;;9.70;;
58621;SDS011;44389;51.578;5.456;2023-05-10T09:39:38;12.90;;;9.13;;
58621;SDS011;44389;51.578;5.456;2023-05-10T09:42:12;13.20;;;9.85;;
58621;SDS011;44389;51.578;5.456;2023-05-10T09:44:38;14.13;;;10.18;;
58621;SDS011;44389;51.578;5.456;2023-05-10T09:47:04;13.35;;;9.27;;
58621;SDS011;44389;51.578;5.456;2023-05-10T09:49:29;12.73;;;8.32;;
58621;SDS011;44389;51.578;5.456;2023-05-10T09:51:59;13.17;;;8.93;;
58621;SDS011;44389;51.578;5.456;2023-05-10T09:54:32;13.25;;;9.35;;
58621;SDS011;44389;51.578;5.456;2023-05-10T09:56:58;14.20;;;9.95;;
58621;SDS011;44389;51.578;5.456;2023-05-10T09:59:25;11.95;;;9.50;;
58621;SDS011;44389;51.578;5.456;2023-05-10T10:01:53;12.88;;;9.38;;
58621;SDS011;44389;51.578;5.456;2023-05-10T10:04:21;12.20;;;9.27;;
58621;SDS011;44389;51.578;5.456;2023-05-10T10:06:47;12.40;;;9.90;;
58621;SDS011;44389;51.578;5.456;2023-05-10T10:09:23;12.37;;;9.20;;
58621;SDS011;44389;51.578;5.456;2023-05-10T10:11:49;11.20;;;9.25;;
58621;SDS011;44389;51.578;5.456;2023-05-10T10:14:16;13.88;;;9.10;;
58621;SDS011;44389;51.578;5.456;2023-05-10T10:16:43;12.95;;;8.38;;
58621;SDS011;44389;51.578;5.456;2023-05-10T10:19:09;13.05;;;8.90;;
58621;SDS011;44389;51.578;5.456;2023-05-10T10:21:35;11.32;;;7.60;;
58621;SDS011;44389;51.578;5.456;2023-05-10T10:24:00;11.07;;;7.90;;
58621;SDS011;44389;51.578;5.456;2023-05-10T10:26:26;10.02;;;7.03;;
58621;SDS011;44389;51.578;5.456;2023-05-10T10:28:56;11.25;;;7.43;;
58621;SDS011;44389;51.578;5.456;2023-05-10T10:31:34;12.30;;;7.82;;
58621;SDS011;44389;51.578;5.456;2023-05-10T10:34:08;11.73;;;7.55;;
58621;SDS011;44389;51.578;5.456;2023-05-10T10:36:42;10.43;;;7.68;;
58621;SDS011;44389;51.578;5.456;2023-05-10T10:39:10;10.73;;;7.25;;
58621;SDS011;44389;51.578;5.456;2023-05-10T10:41:38;10.15;;;7.22;;
58621;SDS011;44389;51.578;5.456;2023-05-10T10:49:49;9.70;;;6.93;;
58621;SDS011;44389;51.578;5.456;2023-05-10T10:52:27;10.02;;;7.28;;
58621;SDS011;44389;51.578;5.456;2023-05-10T10:57:50;17.13;;;12.05;;
58621;SDS011;44389;51.578;5.456;2023-05-10T11:00:17;20.75;;;15.85;;
58621;SDS011;44389;51.578;5.456;2023-05-10T11:03:04;23.15;;;17.98;;
58621;SDS011;44389;51.578;5.456;2023-05-10T11:05:50;23.17;;;18.30;;
58621;SDS011;44389;51.578;5.456;2023-05-10T11:08:26;24.58;;;17.85;;
58621;SDS011;44389;51.578;5.456;2023-05-10T11:13:31;21.63;;;16.98;;
58621;SDS011;44389;51.578;5.456;2023-05-10T11:18:52;23.65;;;17.25;;
58621;SDS011;44389;51.578;5.456;2023-05-10T11:21:23;22.23;;;16.50;;
58621;SDS011;44389;51.578;5.456;2023-05-10T11:26:14;18.20;;;15.47;;
58621;SDS011;44389;51.578;5.456;2023-05-10T11:28:45;20.58;;;17.05;;
58621;SDS011;44389;51.578;5.456;2023-05-10T11:31:18;22.27;;;17.50;;
58621;SDS011;44389;51.578;5.456;2023-05-10T11:33:45;23.60;;;17.33;;
58621;SDS011;44389;51.578;5.456;2023-05-10T11:36:14;23.05;;;18.67;;
58621;SDS011;44389;51.578;5.456;2023-05-10T11:38:41;24.00;;;18.23;;
58621;SDS011;44389;51.578;5.456;2023-05-10T11:41:10;24.27;;;19.50;;
58621;SDS011;44389;51.578;5.456;2023-05-10T11:43:37;24.15;;;18.42;;
58621;SDS011;44389;51.578;5.456;2023-05-10T11:46:04;27.08;;;20.92;;
58621;SDS011;44389;51.578;5.456;2023-05-10T11:48:31;27.00;;;21.15;;
58621;SDS011;44389;51.578;5.456;2023-05-10T11:50:56;26.88;;;21.60;;
58621;SDS011;44389;51.578;5.456;2023-05-10T11:53:22;26.75;;;20.52;;
58621;SDS011;44389;51.578;5.456;2023-05-10T11:55:48;27.05;;;21.77;;
58621;SDS011;44389;51.578;5.456;2023-05-10T11:58:13;26.92;;;20.75;;
58621;SDS011;44389;51.578;5.456;2023-05-10T12:00:38;23.98;;;19.00;;
58621;SDS011;44389;51.578;5.456;2023-05-10T12:03:04;25.05;;;20.00;;
58621;SDS011;44389;51.578;5.456;2023-05-10T12:05:31;24.65;;;19.50;;
58621;SDS011;44389;51.578;5.456;2023-05-10T12:10:35;21.40;;;17.73;;
58621;SDS011;44389;51.578;5.456;2023-05-10T12:13:00;25.48;;;19.48;;
58621;SDS011;44389;51.578;5.456;2023-05-10T12:15:26;24.67;;;19.33;;
58621;SDS011;44389;51.578;5.456;2023-05-10T12:17:52;23.70;;;19.50;;
58621;SDS011;44389;51.578;5.456;2023-05-10T12:20:22;23.92;;;19.17;;
58621;SDS011;44389;51.578;5.456;2023-05-10T12:22:49;23.10;;;18.80;;
58621;SDS011;44389;51.578;5.456;2023-05-10T12:25:17;20.17;;;17.45;;
58621;SDS011;44389;51.578;5.456;2023-05-10T12:27:50;20.83;;;18.38;;
58621;SDS011;44389;51.578;5.456;2023-05-10T12:30:20;19.17;;;17.30;;
58621;SDS011;44389;51.578;5.456;2023-05-10T12:32:50;19.38;;;17.65;;
58621;SDS011;44389;51.578;5.456;2023-05-10T12:35:15;20.02;;;18.02;;
58621;SDS011;44389;51.578;5.456;2023-05-10T12:37:42;19.77;;;18.02;;
58621;SDS011;44389;51.578;5.456;2023-05-10T12:40:08;18.97;;;17.17;;
58621;SDS011;44389;51.578;5.456;2023-05-10T12:42:36;18.95;;;16.60;;
58621;SDS011;44389;51.578;5.456;2023-05-10T12:45:02;20.33;;;18.23;;
58621;SDS011;44389;51.578;5.456;2023-05-10T12:47:29;20.75;;;18.70;;
58621;SDS011;44389;51.578;5.456;2023-05-10T12:49:55;24.77;;;22.30;;
58621;SDS011;44389;51.578;5.456;2023-05-10T12:52:20;25.88;;;23.40;;
58621;SDS011;44389;51.578;5.456;2023-05-10T12:54:45;26.98;;;24.48;;
58621;SDS011;44389;51.578;5.456;2023-05-10T12:57:11;27.67;;;25.17;;
58621;SDS011;44389;51.578;5.456;2023-05-10T12:59:36;26.13;;;23.52;;
58621;SDS011;44389;51.578;5.456;2023-05-10T13:02:01;24.02;;;21.75;;
58621;SDS011;44389;51.578;5.456;2023-05-10T13:04:27;23.83;;;21.30;;
58621;SDS011;44389;51.578;5.456;2023-05-10T13:06:52;24.88;;;22.48;;
58621;SDS011;44389;51.578;5.456;2023-05-10T13:09:17;21.95;;;19.80;;
58621;SDS011;44389;51.578;5.456;2023-05-10T13:11:43;21.50;;;19.45;;
58621;SDS011;44389;51.578;5.456;2023-05-10T13:14:10;21.85;;;19.75;;
58621;SDS011;44389;51.578;5.456;2023-05-10T13:16:35;21.13;;;19.13;;
58621;SDS011;44389;51.578;5.456;2023-05-10T13:19:00;20.60;;;18.70;;
58621;SDS011;44389;51.578;5.456;2023-05-10T13:21:25;20.92;;;19.02;;
58621;SDS011;44389;51.578;5.456;2023-05-10T13:23:51;19.33;;;17.42;;
58621;SDS011;44389;51.578;5.456;2023-05-10T13:26:17;21.30;;;19.30;;
58621;SDS011;44389;51.578;5.456;2023-05-10T13:28:43;19.85;;;18.05;;
58621;SDS011;44389;51.578;5.456;2023-05-10T13:31:08;20.75;;;18.65;;
58621;SDS011;44389;51.578;5.456;2023-05-10T13:33:33;17.92;;;16.02;;
58621;SDS011;44389;51.578;5.456;2023-05-10T13:35:59;18.02;;;16.30;;
58621;SDS011;44389;51.578;5.456;2023-05-10T13:38:24;18.75;;;17.05;;
58621;SDS011;44389;51.578;5.456;2023-05-10T13:40:49;17.70;;;16.00;;
58621;SDS011;44389;51.578;5.456;2023-05-10T13:43:17;16.88;;;15.18;;
58621;SDS011;44389;51.578;5.456;2023-05-10T13:45:43;16.55;;;15.00;;
58621;SDS011;44389;51.578;5.456;2023-05-10T13:48:08;17.88;;;16.23;;
58621;SDS011;44389;51.578;5.456;2023-05-10T13:50:33;18.40;;;16.70;;
58621;SDS011;44389;51.578;5.456;2023-05-10T13:52:59;18.30;;;16.42;;
58621;SDS011;44389;51.578;5.456;2023-05-10T13:55:24;18.23;;;16.45;;
58621;SDS011;44389;51.578;5.456;2023-05-10T13:57:49;17.05;;;15.35;;
58621;SDS011;44389;51.578;5.456;2023-05-10T14:00:15;18.17;;;16.38;;
58621;SDS011;44389;51.578;5.456;2023-05-10T14:02:41;20.45;;;17.52;;
58621;SDS011;44389;51.578;5.456;2023-05-10T14:05:06;24.60;;;20.33;;
58621;SDS011;44389;51.578;5.456;2023-05-10T14:07:32;21.27;;;19.08;;
58621;SDS011;44389;51.578;5.456;2023-05-10T14:09:57;14.75;;;13.25;;
58621;SDS011;44389;51.578;5.456;2023-05-10T14:12:22;14.90;;;12.75;;
58621;SDS011;44389;51.578;5.456;2023-05-10T14:14:47;13.73;;;11.68;;
58621;SDS011;44389;51.578;5.456;2023-05-10T14:17:13;13.23;;;11.48;;
58621;SDS011;44389;51.578;5.456;2023-05-10T14:19:38;12.63;;;11.25;;
58621;SDS011;44389;51.578;5.456;2023-05-10T14:22:04;12.20;;;10.90;;
58621;SDS011;44389;51.578;5.456;2023-05-10T14:24:29;15.52;;;11.30;;
58621;SDS011;44389;51.578;5.456;2023-05-10T14:26:54;14.98;;;11.77;;
58621;SDS011;44389;51.578;5.456;2023-05-10T14:29:20;16.27;;;13.60;;
58621;SDS011;44389;51.578;5.456;2023-05-10T14:31:46;16.48;;;14.38;;
58621;SDS011;44389;51.578;5.456;2023-05-10T14:34:11;19.70;;;15.55;;
58621;SDS011;44389;51.578;5.456;2023-05-10T14:36:36;19.33;;;16.38;;
58621;SDS011;44389;51.578;5.456;2023-05-10T14:39:02;21.63;;;17.77;;
58621;SDS011;44389;51.578;5.456;2023-05-10T14:41:27;22.17;;;17.65;;
58621;SDS011;44389;51.578;5.456;2023-05-10T14:43:53;19.48;;;17.35;;
58621;SDS011;44389;51.578;5.456;2023-05-10T14:46:18;23.30;;;18.70;;
58621;SDS011;44389;51.578;5.456;2023-05-10T14:48:43;20.58;;;18.42;;
58621;SDS011;44389;51.578;5.456;2023-05-10T14:51:08;24.38;;;19.98;;
58621;SDS011;44389;51.578;5.456;2023-05-10T14:53:34;24.15;;;19.83;;
58621;SDS011;44389;51.578;5.456;2023-05-10T14:55:59;27.33;;;21.27;;
58621;SDS011;44389;51.578;5.456;2023-05-10T14:58:26;24.92;;;21.67;;